sensor_id;sensor_type;location;lat;lon;timestamp;P1;durP1;ratioP1;P2;durP2;ratioP2
52508;SDS011;38420;53.150;6.370;2024-01-25T00:00:16;18.92;;;3.15;;
52508;SDS011;38420;53.150;6.370;2024-01-25T00:02:42;17.02;;;4.68;;
52508;SDS011;38420;53.150;6.370;2024-01-25T00:05:07;17.40;;;4.72;;
52508;SDS011;38420;53.150;6.370;2024-01-25T00:07:33;15.27;;;3.42;;
52508;SDS011;38420;53.150;6.370;2024-01-25T00:09:59;11.20;;;3.88;;
52508;SDS011;38420;53.150;6.370;2024-01-25T00:12:25;13.93;;;3.35;;
52508;SDS011;38420;53.150;6.370;2024-01-25T00:14:51;10.48;;;3.42;;
52508;SDS011;38420;53.150;6.370;2024-01-25T00:17:17;21.20;;;3.15;;
52508;SDS011;38420;53.150;6.370;2024-01-25T00:19:43;23.63;;;4.97;;
52508;SDS011;38420;53.150;6.370;2024-01-25T00:22:09;22.80;;;4.07;;
52508;SDS011;38420;53.150;6.370;2024-01-25T00:24:34;17.20;;;4.40;;
52508;SDS011;38420;53.150;6.370;2024-01-25T00:27:01;12.82;;;2.92;;
52508;SDS011;38420;53.150;6.370;2024-01-25T00:29:28;14.95;;;4.22;;
52508;SDS011;38420;53.150;6.370;2024-01-25T00:31:55;17.65;;;3.25;;
52508;SDS011;38420;53.150;6.370;2024-01-25T00:34:21;23.05;;;4.75;;
52508;SDS011;38420;53.150;6.370;2024-01-25T00:36:47;24.73;;;5.43;;
52508;SDS011;38420;53.150;6.370;2024-01-25T00:39:13;17.65;;;4.50;;
52508;SDS011;38420;53.150;6.370;2024-01-25T00:41:38;15.30;;;4.03;;
52508;SDS011;38420;53.150;6.370;2024-01-25T00:44:06;16.98;;;4.57;;
52508;SDS011;38420;53.150;6.370;2024-01-25T00:46:32;21.33;;;4.78;;
52508;SDS011;38420;53.150;6.370;2024-01-25T00:48:58;13.68;;;3.50;;
52508;SDS011;38420;53.150;6.370;2024-01-25T00:51:24;25.58;;;3.88;;
52508;SDS011;38420;53.150;6.370;2024-01-25T00:53:50;21.48;;;4.15;;
52508;SDS011;38420;53.150;6.370;2024-01-25T00:56:15;25.17;;;4.78;;
52508;SDS011;38420;53.150;6.370;2024-01-25T00:58:41;10.52;;;4.07;;
52508;SDS011;38420;53.150;6.370;2024-01-25T01:01:07;13.48;;;3.72;;
52508;SDS011;38420;53.150;6.370;2024-01-25T01:03:35;25.27;;;3.80;;
52508;SDS011;38420;53.150;6.370;2024-01-25T01:06:01;13.27;;;4.47;;
52508;SDS011;38420;53.150;6.370;2024-01-25T01:08:28;17.52;;;4.82;;
52508;SDS011;38420;53.150;6.370;2024-01-25T01:10:53;13.40;;;3.05;;
52508;SDS011;38420;53.150;6.370;2024-01-25T01:13:19;16.95;;;4.05;;
52508;SDS011;38420;53.150;6.370;2024-01-25T01:15:45;16.40;;;4.05;;
52508;SDS011;38420;53.150;6.370;2024-01-25T01:18:10;29.50;;;4.18;;
52508;SDS011;38420;53.150;6.370;2024-01-25T01:20:36;22.23;;;4.75;;
52508;SDS011;38420;53.150;6.370;2024-01-25T01:23:02;22.77;;;4.03;;
52508;SDS011;38420;53.150;6.370;2024-01-25T01:25:27;11.45;;;2.75;;
52508;SDS011;38420;53.150;6.370;2024-01-25T01:27:53;14.57;;;3.92;;
52508;SDS011;38420;53.150;6.370;2024-01-25T01:30:18;11.32;;;3.47;;
52508;SDS011;38420;53.150;6.370;2024-01-25T01:32:44;21.15;;;5.97;;
52508;SDS011;38420;53.150;6.370;2024-01-25T01:35:09;12.82;;;2.88;;
52508;SDS011;38420;53.150;6.370;2024-01-25T01:37:35;17.58;;;4.93;;
52508;SDS011;38420;53.150;6.370;2024-01-25T01:40:01;18.08;;;4.40;;
52508;SDS011;38420;53.150;6.370;2024-01-25T01:42:27;15.00;;;4.60;;
52508;SDS011;38420;53.150;6.370;2024-01-25T01:44:53;18.80;;;3.70;;
52508;SDS011;38420;53.150;6.370;2024-01-25T01:47:19;13.35;;;4.53;;
52508;SDS011;38420;53.150;6.370;2024-01-25T01:49:44;14.40;;;3.95;;
52508;SDS011;38420;53.150;6.370;2024-01-25T01:52:10;19.40;;;4.70;;
52508;SDS011;38420;53.150;6.370;2024-01-25T01:54:36;24.90;;;5.40;;
52508;SDS011;38420;53.150;6.370;2024-01-25T01:57:02;19.00;;;5.63;;
52508;SDS011;38420;53.150;6.370;2024-01-25T01:59:28;28.85;;;5.38;;
52508;SDS011;38420;53.150;6.370;2024-01-25T02:01:54;15.18;;;3.58;;
52508;SDS011;38420;53.150;6.370;2024-01-25T02:04:20;26.77;;;4.68;;
52508;SDS011;38420;53.150;6.370;2024-01-25T02:06:45;18.05;;;4.05;;
52508;SDS011;38420;53.150;6.370;2024-01-25T02:09:11;22.25;;;5.25;;
52508;SDS011;38420;53.150;6.370;2024-01-25T02:11:38;14.75;;;3.80;;
52508;SDS011;38420;53.150;6.370;2024-01-25T02:14:03;29.20;;;5.90;;
52508;SDS011;38420;53.150;6.370;2024-01-25T02:16:29;20.13;;;3.97;;
52508;SDS011;38420;53.150;6.370;2024-01-25T02:18:55;17.92;;;3.67;;
52508;SDS011;38420;53.150;6.370;2024-01-25T02:21:22;29.02;;;5.30;;
52508;SDS011;38420;53.150;6.370;2024-01-25T02:23:49;17.73;;;5.10;;
52508;SDS011;38420;53.150;6.370;2024-01-25T02:26:15;26.92;;;7.22;;
52508;SDS011;38420;53.150;6.370;2024-01-25T02:28:41;18.30;;;4.40;;
52508;SDS011;38420;53.150;6.370;2024-01-25T02:31:06;22.05;;;4.32;;
52508;SDS011;38420;53.150;6.370;2024-01-25T02:33:32;16.48;;;5.00;;
52508;SDS011;38420;53.150;6.370;2024-01-25T02:35:57;24.55;;;5.22;;
52508;SDS011;38420;53.150;6.370;2024-01-25T02:38:23;23.90;;;5.43;;
52508;SDS011;38420;53.150;6.370;2024-01-25T02:40:48;36.72;;;6.50;;
52508;SDS011;38420;53.150;6.370;2024-01-25T02:43:14;28.67;;;4.95;;
52508;SDS011;38420;53.150;6.370;2024-01-25T02:45:40;20.70;;;4.88;;
52508;SDS011;38420;53.150;6.370;2024-01-25T02:48:05;32.67;;;4.65;;
52508;SDS011;38420;53.150;6.370;2024-01-25T02:50:31;26.73;;;5.00;;
52508;SDS011;38420;53.150;6.370;2024-01-25T02:52:57;16.85;;;5.35;;
52508;SDS011;38420;53.150;6.370;2024-01-25T02:55:23;27.27;;;7.00;;
52508;SDS011;38420;53.150;6.370;2024-01-25T02:57:48;18.50;;;4.95;;
52508;SDS011;38420;53.150;6.370;2024-01-25T03:00:14;24.88;;;6.07;;
52508;SDS011;38420;53.150;6.370;2024-01-25T03:02:40;18.85;;;4.85;;
52508;SDS011;38420;53.150;6.370;2024-01-25T03:05:06;22.95;;;4.88;;
52508;SDS011;38420;53.150;6.370;2024-01-25T03:07:31;19.13;;;5.82;;
52508;SDS011;38420;53.150;6.370;2024-01-25T03:09:57;15.98;;;4.45;;
52508;SDS011;38420;53.150;6.370;2024-01-25T03:12:22;20.83;;;4.43;;
52508;SDS011;38420;53.150;6.370;2024-01-25T03:14:48;30.10;;;5.70;;
52508;SDS011;38420;53.150;6.370;2024-01-25T03:17:14;22.05;;;3.67;;
52508;SDS011;38420;53.150;6.370;2024-01-25T03:19:39;16.55;;;4.60;;
52508;SDS011;38420;53.150;6.370;2024-01-25T03:22:05;19.38;;;4.80;;
52508;SDS011;38420;53.150;6.370;2024-01-25T03:24:31;23.90;;;5.90;;
52508;SDS011;38420;53.150;6.370;2024-01-25T03:26:56;29.90;;;5.78;;
52508;SDS011;38420;53.150;6.370;2024-01-25T03:29:22;22.92;;;5.18;;
52508;SDS011;38420;53.150;6.370;2024-01-25T03:31:48;14.30;;;5.43;;
52508;SDS011;38420;53.150;6.370;2024-01-25T03:34:13;37.38;;;7.22;;
52508;SDS011;38420;53.150;6.370;2024-01-25T03:36:39;23.42;;;5.45;;
52508;SDS011;38420;53.150;6.370;2024-01-25T03:39:05;26.20;;;4.35;;
52508;SDS011;38420;53.150;6.370;2024-01-25T03:41:32;21.50;;;6.22;;
52508;SDS011;38420;53.150;6.370;2024-01-25T03:43:58;22.52;;;5.28;;
52508;SDS011;38420;53.150;6.370;2024-01-25T03:46:23;22.17;;;5.93;;
52508;SDS011;38420;53.150;6.370;2024-01-25T03:48:49;22.77;;;5.20;;
52508;SDS011;38420;53.150;6.370;2024-01-25T03:51:14;25.58;;;7.25;;
52508;SDS011;38420;53.150;6.370;2024-01-25T03:53:41;24.30;;;5.45;;
52508;SDS011;38420;53.150;6.370;2024-01-25T03:56:13;29.10;;;5.43;;
52508;SDS011;38420;53.150;6.370;2024-01-25T03:58:42;24.30;;;5.35;;
52508;SDS011;38420;53.150;6.370;2024-01-25T04:01:08;23.63;;;4.22;;
52508;SDS011;38420;53.150;6.370;2024-01-25T04:03:34;18.30;;;6.00;;
52508;SDS011;38420;53.150;6.370;2024-01-25T04:05:59;28.80;;;5.28;;
52508;SDS011;38420;53.150;6.370;2024-01-25T04:08:25;20.38;;;5.80;;
52508;SDS011;38420;53.150;6.370;2024-01-25T04:10:51;25.08;;;4.43;;
52508;SDS011;38420;53.150;6.370;2024-01-25T04:13:16;24.75;;;4.38;;
52508;SDS011;38420;53.150;6.370;2024-01-25T04:15:42;36.17;;;6.38;;
52508;SDS011;38420;53.150;6.370;2024-01-25T04:18:07;24.65;;;5.90;;
52508;SDS011;38420;53.150;6.370;2024-01-25T04:20:33;21.15;;;4.60;;
52508;SDS011;38420;53.150;6.370;2024-01-25T04:22:59;30.92;;;4.75;;
52508;SDS011;38420;53.150;6.370;2024-01-25T04:25:25;30.23;;;6.50;;
52508;SDS011;38420;53.150;6.370;2024-01-25T04:27:50;13.40;;;4.30;;
52508;SDS011;38420;53.150;6.370;2024-01-25T04:30:16;25.85;;;4.97;;
52508;SDS011;38420;53.150;6.370;2024-01-25T04:32:42;27.00;;;4.70;;
52508;SDS011;38420;53.150;6.370;2024-01-25T04:35:10;22.42;;;4.80;;
52508;SDS011;38420;53.150;6.370;2024-01-25T04:37:36;36.65;;;7.88;;
52508;SDS011;38420;53.150;6.370;2024-01-25T04:40:02;25.98;;;6.20;;
52508;SDS011;38420;53.150;6.370;2024-01-25T04:42:28;23.42;;;5.28;;
52508;SDS011;38420;53.150;6.370;2024-01-25T04:44:53;31.48;;;6.18;;
52508;SDS011;38420;53.150;6.370;2024-01-25T04:47:19;30.13;;;5.15;;
52508;SDS011;38420;53.150;6.370;2024-01-25T04:49:44;18.30;;;3.95;;
52508;SDS011;38420;53.150;6.370;2024-01-25T04:52:10;23.88;;;5.47;;
52508;SDS011;38420;53.150;6.370;2024-01-25T04:54:36;27.73;;;5.35;;
52508;SDS011;38420;53.150;6.370;2024-01-25T04:57:01;25.75;;;7.65;;
52508;SDS011;38420;53.150;6.370;2024-01-25T04:59:31;15.85;;;4.53;;
52508;SDS011;38420;53.150;6.370;2024-01-25T05:02:00;17.00;;;3.90;;
52508;SDS011;38420;53.150;6.370;2024-01-25T05:04:26;23.42;;;6.07;;
52508;SDS011;38420;53.150;6.370;2024-01-25T05:06:54;16.80;;;4.15;;
52508;SDS011;38420;53.150;6.370;2024-01-25T05:09:20;25.98;;;6.40;;
52508;SDS011;38420;53.150;6.370;2024-01-25T05:11:45;25.83;;;6.05;;
52508;SDS011;38420;53.150;6.370;2024-01-25T05:14:11;20.10;;;4.63;;
52508;SDS011;38420;53.150;6.370;2024-01-25T05:16:36;22.25;;;6.10;;
52508;SDS011;38420;53.150;6.370;2024-01-25T05:19:02;35.17;;;6.00;;
52508;SDS011;38420;53.150;6.370;2024-01-25T05:21:28;27.23;;;4.80;;
52508;SDS011;38420;53.150;6.370;2024-01-25T05:23:53;32.05;;;5.97;;
52508;SDS011;38420;53.150;6.370;2024-01-25T05:26:19;18.90;;;5.40;;
52508;SDS011;38420;53.150;6.370;2024-01-25T05:28:44;25.08;;;5.68;;
52508;SDS011;38420;53.150;6.370;2024-01-25T05:31:10;19.50;;;5.60;;
52508;SDS011;38420;53.150;6.370;2024-01-25T05:33:40;23.25;;;6.03;;
52508;SDS011;38420;53.150;6.370;2024-01-25T05:36:07;14.95;;;4.78;;
52508;SDS011;38420;53.150;6.370;2024-01-25T05:38:33;17.13;;;4.57;;
52508;SDS011;38420;53.150;6.370;2024-01-25T05:40:58;20.08;;;4.47;;
52508;SDS011;38420;53.150;6.370;2024-01-25T05:43:24;16.60;;;5.47;;
52508;SDS011;38420;53.150;6.370;2024-01-25T05:45:50;37.67;;;6.00;;
52508;SDS011;38420;53.150;6.370;2024-01-25T05:48:16;18.15;;;4.22;;
52508;SDS011;38420;53.150;6.370;2024-01-25T05:50:41;25.48;;;6.40;;
52508;SDS011;38420;53.150;6.370;2024-01-25T05:53:07;22.15;;;4.93;;
52508;SDS011;38420;53.150;6.370;2024-01-25T05:55:32;34.80;;;6.75;;
52508;SDS011;38420;53.150;6.370;2024-01-25T05:57:58;15.77;;;4.35;;
52508;SDS011;38420;53.150;6.370;2024-01-25T06:00:24;21.08;;;7.10;;
52508;SDS011;38420;53.150;6.370;2024-01-25T06:02:49;21.10;;;5.82;;
52508;SDS011;38420;53.150;6.370;2024-01-25T06:05:15;32.67;;;5.28;;
52508;SDS011;38420;53.150;6.370;2024-01-25T06:07:40;21.08;;;4.90;;
52508;SDS011;38420;53.150;6.370;2024-01-25T06:10:06;29.33;;;4.82;;
52508;SDS011;38420;53.150;6.370;2024-01-25T06:12:32;19.63;;;5.72;;
52508;SDS011;38420;53.150;6.370;2024-01-25T06:14:58;28.15;;;5.28;;
52508;SDS011;38420;53.150;6.370;2024-01-25T06:17:24;26.08;;;5.78;;
52508;SDS011;38420;53.150;6.370;2024-01-25T06:19:49;21.92;;;6.35;;
52508;SDS011;38420;53.150;6.370;2024-01-25T06:22:15;32.55;;;8.43;;
52508;SDS011;38420;53.150;6.370;2024-01-25T06:24:42;32.95;;;7.40;;
52508;SDS011;38420;53.150;6.370;2024-01-25T06:27:09;16.42;;;5.78;;
52508;SDS011;38420;53.150;6.370;2024-01-25T06:29:35;31.85;;;6.00;;
52508;SDS011;38420;53.150;6.370;2024-01-25T06:32:00;23.48;;;4.60;;
52508;SDS011;38420;53.150;6.370;2024-01-25T06:34:26;23.60;;;6.82;;
52508;SDS011;38420;53.150;6.370;2024-01-25T06:36:52;24.60;;;6.03;;
52508;SDS011;38420;53.150;6.370;2024-01-25T06:39:17;25.42;;;6.32;;
52508;SDS011;38420;53.150;6.370;2024-01-25T06:41:43;27.40;;;6.55;;
52508;SDS011;38420;53.150;6.370;2024-01-25T06:44:08;22.23;;;6.32;;
52508;SDS011;38420;53.150;6.370;2024-01-25T06:46:34;21.33;;;5.82;;
52508;SDS011;38420;53.150;6.370;2024-01-25T06:49:00;22.23;;;5.15;;
52508;SDS011;38420;53.150;6.370;2024-01-25T06:51:26;37.83;;;6.10;;
52508;SDS011;38420;53.150;6.370;2024-01-25T06:53:51;28.35;;;5.30;;
52508;SDS011;38420;53.150;6.370;2024-01-25T06:56:17;24.42;;;5.60;;
52508;SDS011;38420;53.150;6.370;2024-01-25T06:58:42;30.10;;;5.78;;
52508;SDS011;38420;53.150;6.370;2024-01-25T07:01:08;17.33;;;5.75;;
52508;SDS011;38420;53.150;6.370;2024-01-25T07:03:34;31.60;;;5.28;;
52508;SDS011;38420;53.150;6.370;2024-01-25T07:06:00;19.08;;;5.72;;
52508;SDS011;38420;53.150;6.370;2024-01-25T07:08:25;28.65;;;6.05;;
52508;SDS011;38420;53.150;6.370;2024-01-25T07:10:51;19.73;;;4.43;;
52508;SDS011;38420;53.150;6.370;2024-01-25T07:13:17;20.55;;;4.60;;
52508;SDS011;38420;53.150;6.370;2024-01-25T07:15:42;9.75;;;3.58;;
52508;SDS011;38420;53.150;6.370;2024-01-25T07:18:08;24.33;;;5.28;;
52508;SDS011;38420;53.150;6.370;2024-01-25T07:20:34;19.90;;;4.50;;
52508;SDS011;38420;53.150;6.370;2024-01-25T07:23:00;17.85;;;4.95;;
52508;SDS011;38420;53.150;6.370;2024-01-25T07:25:26;21.30;;;5.85;;
52508;SDS011;38420;53.150;6.370;2024-01-25T07:27:51;14.80;;;3.78;;
52508;SDS011;38420;53.150;6.370;2024-01-25T07:30:17;9.82;;;3.80;;
52508;SDS011;38420;53.150;6.370;2024-01-25T07:32:43;22.40;;;5.15;;
52508;SDS011;38420;53.150;6.370;2024-01-25T07:35:11;12.00;;;4.18;;
52508;SDS011;38420;53.150;6.370;2024-01-25T07:37:37;25.73;;;5.10;;
52508;SDS011;38420;53.150;6.370;2024-01-25T07:40:03;11.75;;;4.65;;
52508;SDS011;38420;53.150;6.370;2024-01-25T07:42:29;22.00;;;4.63;;
52508;SDS011;38420;53.150;6.370;2024-01-25T07:44:55;19.88;;;4.88;;
52508;SDS011;38420;53.150;6.370;2024-01-25T07:47:21;25.77;;;5.72;;
52508;SDS011;38420;53.150;6.370;2024-01-25T07:49:47;27.05;;;7.13;;
52508;SDS011;38420;53.150;6.370;2024-01-25T07:52:13;25.48;;;7.47;;
52508;SDS011;38420;53.150;6.370;2024-01-25T07:54:39;23.55;;;6.72;;
52508;SDS011;38420;53.150;6.370;2024-01-25T07:57:04;20.85;;;8.82;;
52508;SDS011;38420;53.150;6.370;2024-01-25T07:59:30;16.95;;;8.00;;
52508;SDS011;38420;53.150;6.370;2024-01-25T08:01:56;27.63;;;9.10;;
52508;SDS011;38420;53.150;6.370;2024-01-25T08:04:21;16.92;;;8.00;;
52508;SDS011;38420;53.150;6.370;2024-01-25T08:06:47;30.80;;;9.82;;
52508;SDS011;38420;53.150;6.370;2024-01-25T08:09:12;22.58;;;8.80;;
52508;SDS011;38420;53.150;6.370;2024-01-25T08:11:39;20.10;;;10.88;;
52508;SDS011;38420;53.150;6.370;2024-01-25T08:14:04;25.55;;;9.88;;
52508;SDS011;38420;53.150;6.370;2024-01-25T08:16:30;27.83;;;8.95;;
52508;SDS011;38420;53.150;6.370;2024-01-25T08:18:56;23.90;;;9.38;;
52508;SDS011;38420;53.150;6.370;2024-01-25T08:21:21;19.48;;;9.73;;
52508;SDS011;38420;53.150;6.370;2024-01-25T08:23:47;27.35;;;9.50;;
52508;SDS011;38420;53.150;6.370;2024-01-25T08:26:12;29.50;;;11.15;;
52508;SDS011;38420;53.150;6.370;2024-01-25T08:28:39;29.73;;;10.18;;
52508;SDS011;38420;53.150;6.370;2024-01-25T08:31:05;27.08;;;12.43;;
52508;SDS011;38420;53.150;6.370;2024-01-25T08:33:31;28.15;;;11.88;;
52508;SDS011;38420;53.150;6.370;2024-01-25T08:35:57;23.55;;;11.13;;
52508;SDS011;38420;53.150;6.370;2024-01-25T08:38:22;17.52;;;12.27;;
52508;SDS011;38420;53.150;6.370;2024-01-25T08:40:48;27.92;;;13.77;;
52508;SDS011;38420;53.150;6.370;2024-01-25T08:43:13;35.13;;;16.20;;
52508;SDS011;38420;53.150;6.370;2024-01-25T08:45:39;30.73;;;15.85;;
52508;SDS011;38420;53.150;6.370;2024-01-25T08:48:05;26.77;;;16.13;;
52508;SDS011;38420;53.150;6.370;2024-01-25T08:50:31;28.92;;;16.20;;
52508;SDS011;38420;53.150;6.370;2024-01-25T08:52:56;37.10;;;16.02;;
52508;SDS011;38420;53.150;6.370;2024-01-25T08:55:22;28.40;;;15.05;;
52508;SDS011;38420;53.150;6.370;2024-01-25T08:57:48;23.92;;;15.10;;
52508;SDS011;38420;53.150;6.370;2024-01-25T09:00:14;36.97;;;15.40;;
52508;SDS011;38420;53.150;6.370;2024-01-25T09:02:40;51.05;;;17.80;;
52508;SDS011;38420;53.150;6.370;2024-01-25T09:05:06;39.45;;;18.38;;
52508;SDS011;38420;53.150;6.370;2024-01-25T09:07:33;30.00;;;18.63;;
52508;SDS011;38420;53.150;6.370;2024-01-25T09:09:59;28.92;;;18.67;;
52508;SDS011;38420;53.150;6.370;2024-01-25T09:12:25;42.53;;;19.55;;
52508;SDS011;38420;53.150;6.370;2024-01-25T09:14:51;40.58;;;21.10;;
52508;SDS011;38420;53.150;6.370;2024-01-25T09:17:16;46.45;;;20.63;;
52508;SDS011;38420;53.150;6.370;2024-01-25T09:19:50;29.40;;;20.83;;
52508;SDS011;38420;53.150;6.370;2024-01-25T09:22:16;33.25;;;19.65;;
52508;SDS011;38420;53.150;6.370;2024-01-25T09:24:44;25.38;;;18.50;;
52508;SDS011;38420;53.150;6.370;2024-01-25T09:27:13;32.40;;;20.15;;
52508;SDS011;38420;53.150;6.370;2024-01-25T09:29:40;31.70;;;18.48;;
52508;SDS011;38420;53.150;6.370;2024-01-25T09:32:06;41.25;;;20.42;;
52508;SDS011;38420;53.150;6.370;2024-01-25T09:34:33;47.28;;;21.70;;
52508;SDS011;38420;53.150;6.370;2024-01-25T09:36:59;28.08;;;17.65;;
52508;SDS011;38420;53.150;6.370;2024-01-25T09:39:25;25.08;;;19.70;;
52508;SDS011;38420;53.150;6.370;2024-01-25T09:41:50;27.83;;;18.05;;
52508;SDS011;38420;53.150;6.370;2024-01-25T09:44:16;26.38;;;19.70;;
52508;SDS011;38420;53.150;6.370;2024-01-25T09:46:42;24.00;;;19.23;;
52508;SDS011;38420;53.150;6.370;2024-01-25T09:49:09;21.77;;;19.23;;
52508;SDS011;38420;53.150;6.370;2024-01-25T09:51:39;27.08;;;19.15;;
52508;SDS011;38420;53.150;6.370;2024-01-25T09:54:07;31.23;;;20.92;;
52508;SDS011;38420;53.150;6.370;2024-01-25T09:56:33;36.08;;;21.08;;
52508;SDS011;38420;53.150;6.370;2024-01-25T09:59:00;33.30;;;21.55;;
52508;SDS011;38420;53.150;6.370;2024-01-25T10:01:27;27.00;;;16.08;;
52508;SDS011;38420;53.150;6.370;2024-01-25T10:03:52;27.95;;;18.25;;
52508;SDS011;38420;53.150;6.370;2024-01-25T10:06:21;36.88;;;14.00;;
52508;SDS011;38420;53.150;6.370;2024-01-25T10:08:47;30.17;;;16.75;;
52508;SDS011;38420;53.150;6.370;2024-01-25T10:11:13;24.13;;;18.30;;
52508;SDS011;38420;53.150;6.370;2024-01-25T10:13:48;36.03;;;16.58;;
52508;SDS011;38420;53.150;6.370;2024-01-25T10:16:19;31.80;;;14.30;;
52508;SDS011;38420;53.150;6.370;2024-01-25T10:18:47;33.78;;;13.95;;
52508;SDS011;38420;53.150;6.370;2024-01-25T10:21:14;30.45;;;12.98;;
52508;SDS011;38420;53.150;6.370;2024-01-25T10:23:43;31.98;;;13.45;;
52508;SDS011;38420;53.150;6.370;2024-01-25T10:26:11;43.17;;;14.35;;
52508;SDS011;38420;53.150;6.370;2024-01-25T10:28:36;44.13;;;23.27;;
52508;SDS011;38420;53.150;6.370;2024-01-25T10:31:02;56.92;;;39.35;;
52508;SDS011;38420;53.150;6.370;2024-01-25T10:33:32;62.00;;;56.50;;
52508;SDS011;38420;53.150;6.370;2024-01-25T10:36:02;75.53;;;68.68;;
52508;SDS011;38420;53.150;6.370;2024-01-25T10:38:29;107.93;;;98.88;;
52508;SDS011;38420;53.150;6.370;2024-01-25T10:40:57;108.18;;;100.35;;
52508;SDS011;38420;53.150;6.370;2024-01-25T10:43:27;109.22;;;101.50;;
52508;SDS011;38420;53.150;6.370;2024-01-25T10:45:55;89.57;;;82.25;;
52508;SDS011;38420;53.150;6.370;2024-01-25T10:48:23;43.95;;;37.65;;
52508;SDS011;38420;53.150;6.370;2024-01-25T10:50:55;25.45;;;9.45;;
52508;SDS011;38420;53.150;6.370;2024-01-25T10:53:22;22.85;;;6.78;;
52508;SDS011;38420;53.150;6.370;2024-01-25T10:55:48;21.75;;;7.22;;
52508;SDS011;38420;53.150;6.370;2024-01-25T10:58:15;35.83;;;6.20;;
52508;SDS011;38420;53.150;6.370;2024-01-25T11:00:41;20.55;;;6.35;;
52508;SDS011;38420;53.150;6.370;2024-01-25T11:03:27;25.10;;;4.57;;
52508;SDS011;38420;53.150;6.370;2024-01-25T11:06:11;32.85;;;5.50;;
52508;SDS011;38420;53.150;6.370;2024-01-25T11:08:37;25.90;;;5.28;;
52508;SDS011;38420;53.150;6.370;2024-01-25T11:11:06;23.70;;;4.85;;
52508;SDS011;38420;53.150;6.370;2024-01-25T11:13:42;24.95;;;5.25;;
52508;SDS011;38420;53.150;6.370;2024-01-25T11:16:12;26.65;;;6.72;;
52508;SDS011;38420;53.150;6.370;2024-01-25T11:18:56;24.58;;;7.03;;
52508;SDS011;38420;53.150;6.370;2024-01-25T11:21:38;29.38;;;6.15;;
52508;SDS011;38420;53.150;6.370;2024-01-25T11:24:15;27.05;;;4.88;;
52508;SDS011;38420;53.150;6.370;2024-01-25T11:26:42;16.27;;;4.60;;
52508;SDS011;38420;53.150;6.370;2024-01-25T11:29:10;21.80;;;5.32;;
52508;SDS011;38420;53.150;6.370;2024-01-25T11:31:39;31.77;;;5.10;;
52508;SDS011;38420;53.150;6.370;2024-01-25T11:34:05;27.58;;;6.78;;
52508;SDS011;38420;53.150;6.370;2024-01-25T11:36:30;31.08;;;6.50;;
52508;SDS011;38420;53.150;6.370;2024-01-25T11:38:57;28.25;;;5.93;;
52508;SDS011;38420;53.150;6.370;2024-01-25T11:41:22;27.17;;;5.70;;
52508;SDS011;38420;53.150;6.370;2024-01-25T11:43:49;16.30;;;4.38;;
52508;SDS011;38420;53.150;6.370;2024-01-25T11:46:15;27.05;;;5.65;;
52508;SDS011;38420;53.150;6.370;2024-01-25T11:48:41;40.00;;;7.82;;
52508;SDS011;38420;53.150;6.370;2024-01-25T11:51:10;25.45;;;5.47;;
52508;SDS011;38420;53.150;6.370;2024-01-25T11:53:36;23.60;;;7.47;;
52508;SDS011;38420;53.150;6.370;2024-01-25T11:56:02;32.60;;;7.10;;
52508;SDS011;38420;53.150;6.370;2024-01-25T11:58:31;21.60;;;5.95;;
52508;SDS011;38420;53.150;6.370;2024-01-25T12:00:57;31.15;;;6.35;;
52508;SDS011;38420;53.150;6.370;2024-01-25T12:03:23;23.25;;;4.80;;
52508;SDS011;38420;53.150;6.370;2024-01-25T12:05:49;51.72;;;7.85;;
52508;SDS011;38420;53.150;6.370;2024-01-25T12:08:16;21.92;;;7.07;;
52508;SDS011;38420;53.150;6.370;2024-01-25T12:10:42;23.40;;;4.05;;
52508;SDS011;38420;53.150;6.370;2024-01-25T12:13:07;31.02;;;6.03;;
52508;SDS011;38420;53.150;6.370;2024-01-25T12:15:34;21.23;;;5.88;;
52508;SDS011;38420;53.150;6.370;2024-01-25T12:18:00;29.35;;;5.75;;
52508;SDS011;38420;53.150;6.370;2024-01-25T12:20:27;35.90;;;7.47;;
52508;SDS011;38420;53.150;6.370;2024-01-25T12:22:53;25.23;;;6.50;;
52508;SDS011;38420;53.150;6.370;2024-01-25T12:25:19;17.42;;;5.00;;
52508;SDS011;38420;53.150;6.370;2024-01-25T12:27:47;26.10;;;5.55;;
52508;SDS011;38420;53.150;6.370;2024-01-25T12:30:14;30.23;;;7.53;;
52508;SDS011;38420;53.150;6.370;2024-01-25T12:32:40;20.38;;;6.45;;
52508;SDS011;38420;53.150;6.370;2024-01-25T12:35:06;22.73;;;6.00;;
52508;SDS011;38420;53.150;6.370;2024-01-25T12:37:33;27.75;;;5.53;;
52508;SDS011;38420;53.150;6.370;2024-01-25T12:39:58;25.50;;;5.50;;
52508;SDS011;38420;53.150;6.370;2024-01-25T12:42:24;28.17;;;5.82;;
52508;SDS011;38420;53.150;6.370;2024-01-25T12:44:52;20.65;;;5.93;;
52508;SDS011;38420;53.150;6.370;2024-01-25T12:49:46;20.45;;;5.40;;
52508;SDS011;38420;53.150;6.370;2024-01-25T12:52:13;13.80;;;3.58;;
52508;SDS011;38420;53.150;6.370;2024-01-25T12:54:39;18.55;;;4.28;;
52508;SDS011;38420;53.150;6.370;2024-01-25T12:57:05;18.17;;;4.85;;
52508;SDS011;38420;53.150;6.370;2024-01-25T12:59:32;20.33;;;4.57;;
52508;SDS011;38420;53.150;6.370;2024-01-25T13:01:58;21.65;;;4.78;;
52508;SDS011;38420;53.150;6.370;2024-01-25T13:04:24;21.50;;;4.45;;
52508;SDS011;38420;53.150;6.370;2024-01-25T13:06:52;17.45;;;3.88;;
52508;SDS011;38420;53.150;6.370;2024-01-25T13:09:19;25.70;;;5.57;;
52508;SDS011;38420;53.150;6.370;2024-01-25T13:11:44;26.85;;;5.78;;
52508;SDS011;38420;53.150;6.370;2024-01-25T13:14:11;34.13;;;5.07;;
52508;SDS011;38420;53.150;6.370;2024-01-25T13:16:36;26.10;;;5.18;;
52508;SDS011;38420;53.150;6.370;2024-01-25T13:19:02;19.10;;;4.90;;
52508;SDS011;38420;53.150;6.370;2024-01-25T13:21:28;22.90;;;4.93;;
52508;SDS011;38420;53.150;6.370;2024-01-25T13:23:53;24.00;;;6.03;;
52508;SDS011;38420;53.150;6.370;2024-01-25T13:26:19;20.20;;;5.07;;
52508;SDS011;38420;53.150;6.370;2024-01-25T13:28:44;16.67;;;4.75;;
52508;SDS011;38420;53.150;6.370;2024-01-25T13:31:10;18.20;;;5.28;;
52508;SDS011;38420;53.150;6.370;2024-01-25T13:33:36;24.63;;;5.25;;
52508;SDS011;38420;53.150;6.370;2024-01-25T13:36:01;24.20;;;5.50;;
52508;SDS011;38420;53.150;6.370;2024-01-25T13:38:27;23.45;;;5.13;;
52508;SDS011;38420;53.150;6.370;2024-01-25T13:40:52;27.90;;;7.70;;
52508;SDS011;38420;53.150;6.370;2024-01-25T13:43:18;18.92;;;6.28;;
52508;SDS011;38420;53.150;6.370;2024-01-25T13:45:44;18.65;;;4.10;;
52508;SDS011;38420;53.150;6.370;2024-01-25T13:48:09;15.38;;;5.40;;
52508;SDS011;38420;53.150;6.370;2024-01-25T13:50:35;22.10;;;5.30;;
52508;SDS011;38420;53.150;6.370;2024-01-25T13:53:01;24.90;;;6.65;;
52508;SDS011;38420;53.150;6.370;2024-01-25T13:55:26;21.50;;;5.32;;
52508;SDS011;38420;53.150;6.370;2024-01-25T13:57:52;23.30;;;4.72;;
52508;SDS011;38420;53.150;6.370;2024-01-25T14:00:18;22.88;;;5.03;;
52508;SDS011;38420;53.150;6.370;2024-01-25T14:02:43;27.02;;;6.07;;
52508;SDS011;38420;53.150;6.370;2024-01-25T14:05:10;25.33;;;6.35;;
52508;SDS011;38420;53.150;6.370;2024-01-25T14:07:36;17.77;;;4.82;;
52508;SDS011;38420;53.150;6.370;2024-01-25T14:10:02;32.10;;;5.55;;
52508;SDS011;38420;53.150;6.370;2024-01-25T14:12:28;21.80;;;5.40;;
52508;SDS011;38420;53.150;6.370;2024-01-25T14:14:53;24.60;;;6.68;;
52508;SDS011;38420;53.150;6.370;2024-01-25T14:17:19;20.35;;;5.40;;
52508;SDS011;38420;53.150;6.370;2024-01-25T14:19:46;26.17;;;6.10;;
52508;SDS011;38420;53.150;6.370;2024-01-25T14:22:12;25.15;;;6.13;;
52508;SDS011;38420;53.150;6.370;2024-01-25T14:24:37;27.13;;;6.10;;
52508;SDS011;38420;53.150;6.370;2024-01-25T14:27:03;29.15;;;7.18;;
52508;SDS011;38420;53.150;6.370;2024-01-25T14:29:29;25.70;;;8.07;;